Braggs, Oklahoma
Current Conditions -  °F | °C
As of 6:53 PM on Saturday 22 Nov 2014 (Local Time) from KMKO Reporting Station
Overcast Overcast  
Wind Chill: 54°   Ceiling: 400
Heat Index: 54°   Visibility: 9mi
Dew Point: 53°   Wind: 13mph
Humidity: 97%   Direction: 140°SE
Pressure: 29.91"   Gusts: NA
Location:  35.66°N, 95.2°W
Report Text: KMKO 230053Z AUTO 14011KT 9SM OVC004 12/12 A2991 RMK AO2 RAE45 SLP126 P0001 T01220117
Loading
Personal Weather Stations






























Interactive Weather Map New forecast layout! Learn more

10-Day Weather Forecast

Advertisements
Track Severe Weather on mobile